»·PEaware :: N728CS KSBP-KLAS

N728CS :: KSBP-KLAS

FLIGHT INFORMATION

Flight Status: Arrived
Operator: Privately registered:
United States
More flights under this callsign
Pilot: Chandler S. (807)
Aircraft: Unknown
(LEGA)
More flights by this aircraft type
Origin: KSBP San Luis Co Regl
United States
Destination: KLAS McCarran Intl
United States
More flights between these airports :: More routes between these airports
Route: CREPE3 MQO PMD DAG KEPEC6
File this flight plan on PilotEdge
Remarks:
Altitude:
(Current/Filed)
29,000ft
Speed:
(Current/Filed)
300kts
Departed: 24-May-19 11:22 PM
Arrived: 25-May-19 12:12 AM
Distance/Time
Traveled:
271nm/0:50
Distance/Time
To Go:
Arrived

Flight Plot

Page will automatically refresh every two minutes.

Flight plan parsing failed; only flown route is shown


Map Options




Map Legend


Flown Route
Filed Route
Departure Airport
Arrival Airport
Navaid (VOR, NDB)
Fix

Horizontal Profiles

Position Reports

Time Latitude Longitude Heading Altitude Ground
Speed
24-May-19 23:20 35.232955 -120.633307 302 218ft 17kts
24-May-19 23:21 35.256051 -120.681321 304 1968ft 226kts
24-May-19 23:22 35.296345 -120.750212 306 4976ft 253kts
24-May-19 23:23 35.340784 -120.816800 338 8367ft 257kts
24-May-19 23:24 35.379211 -120.762643 114 11803ft 285kts
24-May-19 23:25 35.336839 -120.682511 106 15192ft 294kts
24-May-19 23:26 35.311644 -120.584254 106 18514ft 311kts
24-May-19 23:27 35.288550 -120.494658 107 21423ft 314kts
24-May-19 23:28 35.261369 -120.389666 107 23075ft 364kts
24-May-19 23:29 35.229760 -120.267990 108 25928ft 380kts
24-May-19 23:30 35.197601 -120.144815 109 28903ft 380kts
24-May-19 23:31 35.165495 -120.022502 110 31040ft 393kts
24-May-19 23:32 35.128856 -119.883553 110 31198ft 458kts
24-May-19 23:33 35.125651 -119.724021 90 31257ft 481kts
24-May-19 23:34 35.126659 -119.558781 90 30989ft 487kts
24-May-19 23:35 35.127415 -119.393585 90 30974ft 484kts
24-May-19 23:36 35.127942 -119.229196 90 30968ft 481kts
24-May-19 23:37 35.128242 -119.071629 90 30971ft 482kts
24-May-19 23:38 35.128334 -118.945730 90 30984ft 484kts
24-May-19 23:39 35.128259 -118.781102 91 31013ft 484kts
24-May-19 23:40 35.127959 -118.616800 90 31048ft 488kts
24-May-19 23:41 35.127432 -118.448910 90 31067ft 492kts
24-May-19 23:42 35.126674 -118.282395 91 31060ft 494kts
24-May-19 23:43 35.125672 -118.113525 91 30998ft 497kts
24-May-19 23:45 35.124431 -117.944954 91 30976ft 498kts
24-May-19 23:46 35.122967 -117.775588 91 30972ft 498kts
24-May-19 23:47 35.121315 -117.611408 91 30973ft 498kts
24-May-19 23:48 35.119318 -117.437140 91 30965ft 499kts
24-May-19 23:49 35.117150 -117.268500 92 29992ft 492kts
24-May-19 23:50 35.114785 -117.102637 92 28575ft 485kts
24-May-19 23:51 35.112231 -116.939290 92 27213ft 476kts
24-May-19 23:52 35.109551 -116.780122 92 25897ft 453kts
24-May-19 23:53 35.106826 -116.630498 92 24474ft 431kts
24-May-19 23:54 35.104045 -116.487253 92 23954ft 414kts
24-May-19 23:55 35.138442 -116.359173 46 23971ft 418kts
24-May-19 23:56 35.220070 -116.256455 45 23696ft 426kts
24-May-19 23:57 35.301335 -116.154328 45 21836ft 411kts
24-May-19 23:58 35.378308 -116.057303 46 19694ft 384kts
24-May-19 23:59 35.451187 -115.965174 46 17569ft 367kts
25-May-19 00:00 35.510032 -115.890598 46 15794ft 356kts
25-May-19 00:01 35.577253 -115.803590 57 13670ft 346kts
25-May-19 00:02 35.623967 -115.705109 61 12967ft 322kts
25-May-19 00:03 35.668350 -115.610221 61 12971ft 317kts
25-May-19 00:04 35.712561 -115.515426 61 12973ft 319kts
25-May-19 00:04 35.751110 -115.432552 61 11983ft 344kts
25-May-19 00:06 35.806313 -115.325214 33 9506ft 298kts
25-May-19 00:07 35.879436 -115.282438 25 7309ft 281kts
25-May-19 00:07 35.936300 -115.249930 25 5452ft 264kts
25-May-19 00:09 36.009056 -115.208176 25 3860ft 232kts
25-May-19 00:09 36.051604 -115.183893 24 2822ft 164kts
25-May-19 00:10 36.086479 -115.163997 24 2148ft 100kts
25-May-19 00:12 36.092672 -115.162015 204 2148ft 9kts
25-May-19 00:12 36.089687 -115.163620 203 2148ft 19kts
25-May-19 00:14 36.082404 -115.168439 226 2148ft 24kts
25-May-19 00:14 36.082010 -115.171932 58 2148ft 8kts
25-May-19 00:15 36.082059 -115.171695 91 2148ft 0kts
25-May-19 00:16 36.082059 -115.171695 91 2148ft 0kts
25-May-19 00:17 36.082059 -115.171695 91 2148ft 0kts
25-May-19 00:18 36.082059 -115.171695 91 2148ft 0kts
25-May-19 00:19 36.082059 -115.171695 91 2148ft 0kts
25-May-19 00:20 36.082059 -115.171695 91 2148ft 0kts

Navigation Log

Ident Type
Flight plan parsing failed, navigation log unavailable